Time;durP1;ratioP1;P1;durP2;ratioP2;P2;SDS_P1;SDS_P2;PMS_P1;PMS_P2;Temp;Humidity;BMP_temperature;BMP_pressure;BME280_temperature;BME280_humidity;BME280_pressure;Samples;Min_cycle;Max_cycle;Signal;HPM_P1;HPM_P2
2023/04/27 08:16:46;;;;;;;4.10;3.55;;;;;;;;;;5997779;23;21067;-72
2023/04/27 08:58:00;;;;;;;4.70;3.70;;;;;;;;;;5112883;23;20063;-73
2023/04/27 09:00:26;;;;;;;4.97;3.60;;;;;;;;;;4938025;29;20421;-73
2023/04/27 09:02:51;;;;;;;6.70;3.38;;;;;;;;;;4938129;29;20107;-73
2023/04/27 09:05:18;;;;;;;7.97;3.10;;;;;;;;;;4937991;29;20036;-73
2023/04/27 09:08:04;;;;;;;4.07;3.05;;;;;;;;;;4937833;29;20438;-73
2023/04/27 09:10:30;;;;;;;4.28;3.40;;;;;;;;;;4937923;29;20485;-74
2023/04/27 09:12:59;;;;;;;6.88;3.90;;;;;;;;;;4937929;29;20059;-73
2023/04/27 09:15:26;;;;;;;4.85;3.58;;;;;;;;;;4937558;29;20038;-74
2023/04/27 09:17:57;;;;;;;5.10;3.35;;;;;;;;;;4937849;29;20032;-73
2023/04/27 09:20:25;;;;;;;4.78;3.80;;;;;;;;;;4937637;29;20360;-73
2023/04/27 09:22:54;;;;;;;5.30;4.10;;;;;;;;;;4937731;29;20039;-73
2023/04/27 09:25:30;;;;;;;4.82;3.63;;;;;;;;;;4937832;29;20036;-75
2023/04/27 09:27:57;;;;;;;5.22;3.22;;;;;;;;;;4920645;29;20023;-76
2023/04/27 09:30:23;;;;;;;4.50;3.35;;;;;;;;;;4937617;29;20032;-73
2023/04/27 09:32:54;;;;;;;3.67;3.20;;;;;;;;;;4937320;29;20040;-74
2023/04/27 09:35:32;;;;;;;4.53;3.25;;;;;;;;;;4937277;29;20035;-77
2023/04/27 09:37:58;;;;;;;6.85;3.10;;;;;;;;;;4937621;29;20033;-76
2023/04/27 09:40:26;;;;;;;4.40;2.90;;;;;;;;;;4937409;29;20107;-76
2023/04/27 09:42:56;;;;;;;3.55;2.88;;;;;;;;;;4937265;29;20086;-76
2023/04/27 09:45:23;;;;;;;3.65;2.88;;;;;;;;;;4937220;29;20047;-76
2023/04/27 09:47:49;;;;;;;4.53;2.53;;;;;;;;;;4937205;29;20034;-76
2023/04/27 09:50:15;;;;;;;4.28;2.80;;;;;;;;;;4937483;29;20020;-76
2023/04/27 09:52:41;;;;;;;6.22;2.72;;;;;;;;;;4937206;29;20031;-76
2023/04/27 09:55:15;;;;;;;4.03;2.85;;;;;;;;;;4936994;29;20055;-75
2023/04/27 09:57:56;;;;;;;3.47;2.90;;;;;;;;;;4937193;29;20099;-76
2023/04/27 10:00:51;;;;;;;3.10;2.67;;;;;;;;;;4936981;29;20035;-75
2023/04/27 10:03:39;;;;;;;4.00;2.90;;;;;;;;;;4898463;29;20070;-75
2023/04/27 10:06:19;;;;;;;3.30;3.00;;;;;;;;;;4936969;29;20394;-76
2023/04/27 10:08:45;;;;;;;5.35;2.90;;;;;;;;;;4936845;29;20102;-76
2023/04/27 10:11:15;;;;;;;4.47;2.83;;;;;;;;;;4936595;29;20471;-77
2023/04/27 10:13:51;;;;;;;2.92;2.60;;;;;;;;;;4936734;29;20491;-77
2023/04/27 10:16:17;;;;;;;2.97;2.50;;;;;;;;;;4919770;29;20383;-75
2023/04/27 10:18:53;;;;;;;2.80;1.63;;;;;;;;;;4936688;29;20090;-76
2023/04/27 10:21:19;;;;;;;3.03;2.45;;;;;;;;;;4936899;29;20023;-75
2023/04/27 10:23:50;;;;;;;3.20;2.22;;;;;;;;;;4936577;29;20435;-75
2023/04/27 10:26:26;;;;;;;3.60;2.00;;;;;;;;;;4936602;29;20211;-74
2023/04/27 10:28:57;;;;;;;3.15;2.88;;;;;;;;;;4936578;29;20034;-76
2023/04/27 10:31:28;;;;;;;2.15;1.95;;;;;;;;;;4936739;29;20406;-77
2023/04/27 10:34:07;;;;;;;2.30;2.05;;;;;;;;;;4936375;29;20059;-75
2023/04/27 10:36:35;;;;;;;3.22;1.83;;;;;;;;;;4936344;29;20042;-75
2023/04/27 10:39:01;;;;;;;2.80;1.80;;;;;;;;;;4936338;29;20071;-74
2023/04/27 10:41:34;;;;;;;3.92;1.77;;;;;;;;;;4936349;29;20032;-75
2023/04/27 10:44:28;;;;;;;2.17;1.70;;;;;;;;;;4936399;29;20114;-76
2023/04/27 10:46:55;;;;;;;2.33;1.92;;;;;;;;;;4936226;29;20083;-76
2023/04/27 10:49:21;;;;;;;4.95;1.85;;;;;;;;;;4936046;29;20028;-74
2023/04/27 10:51:49;;;;;;;1.90;1.80;;;;;;;;;;4936158;29;20059;-75
2023/04/27 10:54:15;;;;;;;2.30;2.08;;;;;;;;;;4936120;29;20067;-82
2023/04/27 10:56:40;;;;;;;2.20;1.80;;;;;;;;;;4936442;29;20376;-81
2023/04/27 10:59:07;;;;;;;3.08;1.73;;;;;;;;;;4936194;29;20086;-76
2023/04/27 11:01:32;;;;;;;2.28;2.03;;;;;;;;;;4935987;29;20043;-78
2023/04/27 11:04:00;;;;;;;2.10;1.90;;;;;;;;;;4936289;29;20045;-80
2023/04/27 11:06:27;;;;;;;2.00;1.90;;;;;;;;;;4936227;29;20039;-78
2023/04/27 11:08:53;;;;;;;3.85;2.05;;;;;;;;;;4938348;29;20031;-77
2023/04/27 11:11:19;;;;;;;2.42;2.22;;;;;;;;;;4935643;29;20497;-73
2023/04/27 11:13:48;;;;;;;2.17;1.98;;;;;;;;;;4938347;29;20483;-87
2023/04/27 11:16:15;;;;;;;2.10;1.90;;;;;;;;;;4936132;29;20471;-74
2023/04/27 11:18:41;;;;;;;3.28;2.58;;;;;;;;;;4935995;29;20054;-74
2023/04/27 11:21:16;;;;;;;3.92;2.20;;;;;;;;;;4936122;29;20471;-73
2023/04/27 11:23:42;;;;;;;2.13;1.70;;;;;;;;;;4935735;29;20039;-73
2023/04/27 11:26:15;;;;;;;2.22;2.05;;;;;;;;;;4935815;29;20360;-74
2023/04/27 11:28:56;;;;;;;1.88;1.70;;;;;;;;;;4935973;29;20055;-73
2023/04/27 11:31:22;;;;;;;1.80;1.70;;;;;;;;;;4935860;29;20391;-74
2023/04/27 11:33:48;;;;;;;2.03;1.85;;;;;;;;;;4935580;29;20023;-73
2023/04/27 11:36:18;;;;;;;1.63;1.52;;;;;;;;;;4935866;29;20115;-73
2023/04/27 11:38:44;;;;;;;1.50;1.40;;;;;;;;;;4936008;29;20028;-73
2023/04/27 11:41:10;;;;;;;2.88;2.55;;;;;;;;;;4936049;29;20036;-73
2023/04/27 11:43:41;;;;;;;1.40;1.30;;;;;;;;;;4935907;29;20082;-74
2023/04/27 17:03:42;;;;;;;2.83;2.13;;;;;;;;;;4975784;28;20122;-73
2023/04/27 17:06:07;;;;;;;3.83;1.98;;;;;;;;;;4976836;28;20470;-78
